Time;durP1;ratioP1;P1;durP2;ratioP2;P2;SDS_P1;SDS_P2;PMS_P1;PMS_P2;Temp;Humidity;BMP_temperature;BMP_pressure;BME280_temperature;BME280_humidity;BME280_pressure;Samples;Min_cycle;Max_cycle;Signal;HPM_P1;HPM_P2
2023/04/29 00:00:46;;;;;;;;;;;;;;;28.09;24.33;100863.44;5076927;28;1286;-22
2023/04/29 00:03:12;;;;;;;;;;;;;;;27.47;24.72;100860.81;5090623;28;1910;-22
2023/04/29 00:05:37;;;;;;;;;;;;;;;27.50;25.27;100860.44;5090264;28;1230;-22
2023/04/29 00:08:03;;;;;;;;;;;;;;;27.97;24.70;100853.09;5087740;28;873;-22
2023/04/29 00:10:29;;;;;;;;;;;;;;;28.14;24.58;100861.00;5089662;28;1170;-22
2023/04/29 00:12:55;;;;;;;;;;;;;;;27.66;24.53;100850.50;5095127;28;1034;-21
2023/04/29 00:15:21;;;;;;;;;;;;;;;27.24;25.21;100850.88;5095883;28;1066;-23
2023/04/29 00:17:47;;;;;;;;;;;;;;;27.87;24.52;100857.91;5095506;28;1039;-22
2023/04/29 00:20:12;;;;;;;;;;;;;;;28.18;24.18;100851.47;5080944;28;1101;-22
2023/04/29 00:22:38;;;;;;;;;;;;;;;27.34;25.29;100856.84;5092194;28;2365;-22
2023/04/29 00:25:04;;;;;;;;;;;;;;;27.47;25.08;100856.25;5085548;28;1118;-22
2023/04/29 00:27:30;;;;;;;;;;;;;;;28.02;24.73;100857.06;5092133;28;1030;-22
2023/04/29 00:29:56;;;;;;;;;;;;;;;28.17;24.16;100846.25;5079542;28;1102;-23
2023/04/29 00:32:22;;;;;;;;;;;;;;;27.49;24.87;100856.88;5098445;28;856;-22
2023/04/29 00:34:47;;;;;;;;;;;;;;;27.32;25.33;100850.81;5098958;28;1133;-22
2023/04/29 00:37:13;;;;;;;;;;;;;;;27.86;24.77;100850.84;5078838;28;1035;-23
2023/04/29 00:39:38;;;;;;;;;;;;;;;27.87;24.63;100853.38;5080398;28;1114;-22
2023/04/29 00:42:04;;;;;;;;;;;;;;;27.00;25.78;100850.84;5085198;28;1902;-22
2023/04/29 00:44:30;;;;;;;;;;;;;;;27.31;25.30;100854.50;5085673;28;1088;-22
2023/04/29 00:46:56;;;;;;;;;;;;;;;28.02;24.69;100852.50;5085020;28;1102;-22
2023/04/29 00:49:21;;;;;;;;;;;;;;;27.89;24.71;100858.59;5067496;28;1138;-22
2023/04/29 00:51:47;;;;;;;;;;;;;;;27.00;25.98;100852.72;5080360;28;1123;-22
2023/04/29 00:54:12;;;;;;;;;;;;;;;27.43;25.27;100854.94;5084943;28;1190;-22
2023/04/29 00:56:40;;;;;;;;;;;;;;;27.92;24.74;100854.66;5085333;28;1202;-22
2023/04/29 00:59:08;;;;;;;;;;;;;;;27.78;24.63;100859.84;5085129;28;1113;-22
2023/04/29 01:01:34;;;;;;;;;;;;;;;26.98;26.16;100849.34;5073248;28;1914;-22
2023/04/29 01:03:59;;;;;;;;;;;;;;;27.54;24.99;100858.22;5092693;28;1130;-23
2023/04/29 01:06:37;;;;;;;;;;;;;;;28.02;24.58;100857.06;5098650;28;1066;-22
2023/04/29 01:09:21;;;;;;;;;;;;;;;27.64;25.00;100853.41;5076370;28;1209;-21
2023/04/29 01:12:02;;;;;;;;;;;;;;;26.77;25.93;100840.03;5068099;28;1427;-23
2023/04/29 01:14:28;;;;;;;;;;;;;;;27.61;25.18;100841.06;5078307;28;1008;-22
2023/04/29 01:16:55;;;;;;;;;;;;;;;28.15;24.27;100845.59;5073469;28;1156;-22
2023/04/29 01:19:40;;;;;;;;;;;;;;;27.91;24.51;100843.00;5067139;28;1108;-22
2023/04/29 01:22:06;;;;;;;;;;;;;;;26.93;25.48;100840.94;5092016;28;1976;-22
2023/04/29 01:24:32;;;;;;;;;;;;;;;27.61;24.93;100846.47;5079663;28;1211;-22
2023/04/29 01:27:01;;;;;;;;;;;;;;;28.07;24.11;100841.97;5079260;28;1283;-22
2023/04/29 01:30:17;;;;;;;;;;;;;;;27.38;24.51;100843.81;5080118;28;1211;-22
2023/04/29 01:33:01;;;;;;;;;;;;;;;26.84;25.92;100843.69;5045375;28;1313;-22
2023/04/29 01:35:30;;;;;;;;;;;;;;;27.93;24.65;100850.91;5084910;28;1087;-22
2023/04/29 01:38:05;;;;;;;;;;;;;;;28.13;24.32;100851.19;5066113;28;1319;-22
2023/04/29 01:40:37;;;;;;;;;;;;;;;27.08;25.75;100849.13;5085867;28;1068;-22
2023/04/29 01:43:10;;;;;;;;;;;;;;;27.28;25.16;100854.06;5065424;28;1909;-22
2023/04/29 01:45:40;;;;;;;;;;;;;;;28.03;24.26;100848.78;5044928;28;1347;-22
2023/04/29 01:48:06;;;;;;;;;;;;;;;28.20;23.87;100848.56;5072989;28;1154;-22
2023/04/29 01:50:31;;;;;;;;;;;;;;;27.48;24.70;100846.28;5069377;28;1303;-22
2023/04/29 01:53:06;;;;;;;;;;;;;;;26.98;25.34;100844.78;5059468;28;1114;-23
2023/04/29 01:55:32;;;;;;;;;;;;;;;27.90;24.28;100859.41;5069885;28;1240;-22
2023/04/29 01:58:27;;;;;;;;;;;;;;;28.16;24.17;100856.22;5064641;28;1347;-22
2023/04/29 02:00:59;;;;;;;;;;;;;;;27.29;25.24;100855.72;5064476;28;1629;-22
2023/04/29 02:03:28;;;;;;;;;;;;;;;27.08;25.60;100849.97;5079212;28;1890;-22
2023/04/29 02:05:56;;;;;;;;;;;;;;;28.05;24.22;100852.13;5065577;28;1157;-22
2023/04/29 02:08:22;;;;;;;;;;;;;;;28.32;23.69;100855.19;5072207;28;1306;-22
2023/04/29 02:10:52;;;;;;;;;;;;;;;27.40;25.11;100852.59;5072441;28;1146;-23
2023/04/29 02:13:27;;;;;;;;;;;;;;;27.31;25.24;100849.13;5058888;28;1432;-22
2023/04/29 02:15:53;;;;;;;;;;;;;;;28.05;24.02;100849.44;5089922;28;1166;-22
2023/04/29 02:18:18;;;;;;;;;;;;;;;28.28;23.98;100845.78;5089765;28;1143;-22
2023/04/29 02:20:46;;;;;;;;;;;;;;;27.49;24.67;100845.25;5065555;28;1216;-22
2023/04/29 02:23:12;;;;;;;;;;;;;;;27.04;25.38;100847.81;5078609;28;1905;-22
2023/04/29 02:25:38;;;;;;;;;;;;;;;28.08;24.27;100849.06;5090667;28;1067;-23
2023/04/29 02:28:04;;;;;;;;;;;;;;;28.23;23.96;100850.91;5071950;28;1360;-22
2023/04/29 02:30:30;;;;;;;;;;;;;;;27.61;24.54;100848.38;5078333;28;1101;-22
2023/04/29 02:32:56;;;;;;;;;;;;;;;27.05;25.55;100844.09;5065754;28;1186;-22
2023/04/29 02:35:21;;;;;;;;;;;;;;;27.93;24.52;100849.06;5090138;28;1182;-22
2023/04/29 02:37:47;;;;;;;;;;;;;;;28.23;24.13;100848.19;5073881;28;1182;-22
2023/04/29 02:40:12;;;;;;;;;;;;;;;28.01;24.23;100850.00;5078354;28;1054;-22
2023/04/29 02:42:38;;;;;;;;;;;;;;;27.16;25.29;100842.84;5096766;28;1902;-22
2023/04/29 02:45:04;;;;;;;;;;;;;;;27.66;24.41;100848.63;5088843;28;1206;-22
2023/04/29 02:47:30;;;;;;;;;;;;;;;28.29;24.01;100846.63;5058399;28;1098;-23
2023/04/29 02:49:55;;;;;;;;;;;;;;;28.33;23.74;100845.22;5078340;28;1212;-22
2023/04/29 02:52:21;;;;;;;;;;;;;;;27.36;24.70;100840.50;5091225;28;1061;-22
2023/04/29 02:54:47;;;;;;;;;;;;;;;27.36;25.33;100838.59;5058394;28;1300;-22
2023/04/29 02:57:13;;;;;;;;;;;;;;;28.01;24.32;100842.72;5058465;28;1157;-22
2023/04/29 02:59:38;;;;;;;;;;;;;;;28.22;23.92;100841.97;5042400;28;1490;-22
2023/04/29 03:02:04;;;;;;;;;;;;;;;27.34;25.11;100847.94;5058226;28;1894;-22
2023/04/29 03:04:31;;;;;;;;;;;;;;;26.97;25.63;100842.28;5063873;28;1123;-22
2023/04/29 03:06:56;;;;;;;;;;;;;;;28.08;23.94;100848.22;5078131;28;1296;-22
2023/04/29 03:09:24;;;;;;;;;;;;;;;28.30;23.71;100846.44;5078142;28;1125;-22
2023/04/29 03:11:50;;;;;;;;;;;;;;;28.16;24.07;100856.22;5074863;28;1698;-22
2023/04/29 03:14:15;;;;;;;;;;;;;;;27.30;24.77;100844.75;5060819;28;1102;-22
2023/04/29 03:16:41;;;;;;;;;;;;;;;27.71;24.57;100850.84;5058420;28;1110;-22
2023/04/29 03:19:07;;;;;;;;;;;;;;;28.32;23.83;100851.66;5093861;28;1019;-22
2023/04/29 03:21:32;;;;;;;;;;;;;;;27.92;24.57;100854.66;5085257;28;1921;-17
2023/04/29 03:24:53;;;;;;;;;;;;;;;26.70;26.02;100847.16;5094148;28;1346;-22
2023/04/29 03:27:20;;;;;;;;;;;;;;;27.83;24.40;100853.88;5092200;28;1163;-22
2023/04/29 03:29:45;;;;;;;;;;;;;;;28.02;23.89;100862.47;5092270;28;1176;-22
2023/04/29 03:32:12;;;;;;;;;;;;;;;27.83;24.23;100856.59;5064448;28;1417;-22
2023/04/29 03:34:37;;;;;;;;;;;;;;;26.29;24.80;100855.25;5081168;28;1117;-24
2023/04/29 03:37:19;;;;;;;;;;;;;;;24.81;22.26;100855.16;5079502;28;1646;-24
2023/04/29 03:39:51;;;;;;;;;;;;;;;24.09;22.24;100849.16;5070608;28;2087;-23
2023/04/29 03:42:17;;;;;;;;;;;;;;;24.42;23.32;100854.72;5086328;28;1182;-22
2023/04/29 03:44:43;;;;;;;;;;;;;;;25.96;23.01;100849.16;5085430;28;1910;-22
2023/04/29 03:47:09;;;;;;;;;;;;;;;25.71;22.85;100854.59;5090853;28;1306;-26
2023/04/29 03:49:34;;;;;;;;;;;;;;;24.85;22.85;100861.06;5090703;28;1257;-25
2023/04/29 03:52:00;;;;;;;;;;;;;;;25.08;21.36;100858.59;5091533;28;1138;-24
2023/04/29 03:54:25;;;;;;;;;;;;;;;25.56;22.27;100858.78;5077734;28;1197;-31
2023/04/29 03:56:51;;;;;;;;;;;;;;;23.68;21.84;100852.44;5080170;28;1112;-27
2023/04/29 03:59:17;;;;;;;;;;;;;;;22.10;22.97;100848.94;5076851;28;1175;-27
2023/04/29 04:01:42;;;;;;;;;;;;;;;22.73;22.10;100855.44;5080840;28;1170;-24
2023/04/29 04:04:08;;;;;;;;;;;;;;;23.02;20.57;100848.19;5076115;28;1886;-26
2023/04/29 04:06:36;;;;;;;;;;;;;;;26.51;18.18;100860.06;5071126;28;1549;-23
2023/04/29 04:09:02;;;;;;;;;;;;;;;27.73;17.89;100867.69;5073626;28;1150;-25
2023/04/29 04:11:29;;;;;;;;;;;;;;;28.31;18.46;100863.50;5070579;28;1354;-23
2023/04/29 04:14:01;;;;;;;;;;;;;;;28.79;18.78;100871.19;5070985;28;1188;-31
2023/04/29 04:16:26;;;;;;;;;;;;;;;29.15;18.62;100861.34;5071216;28;1403;-22
2023/04/29 04:18:52;;;;;;;;;;;;;;;29.39;18.75;100869.25;5070875;28;1174;-22
2023/04/29 04:21:18;;;;;;;;;;;;;;;29.57;18.80;100869.63;5064295;28;1977;-22
2023/04/29 04:23:50;;;;;;;;;;;;;;;29.69;18.86;100867.25;5050483;28;1989;-22
2023/04/29 04:26:21;;;;;;;;;;;;;;;29.81;19.06;100864.78;5050918;28;1273;-23
2023/04/29 04:29:25;;;;;;;;;;;;;;;29.97;19.21;100872.81;5061159;28;1183;-23
2023/04/29 04:31:55;;;;;;;;;;;;;;;29.95;19.26;100875.72;5070531;28;1175;-23
2023/04/29 04:34:21;;;;;;;;;;;;;;;29.88;19.59;100872.97;5058354;28;1497;-22
2023/04/29 04:36:49;;;;;;;;;;;;;;;29.17;20.63;100874.69;5043245;28;1219;-22
2023/04/29 04:39:15;;;;;;;;;;;;;;;27.78;22.25;100867.16;5038473;28;1285;-23
2023/04/29 04:41:40;;;;;;;;;;;;;;;29.28;20.77;100881.47;5037500;28;1215;-23
2023/04/29 04:44:06;;;;;;;;;;;;;;;29.95;20.01;100883.88;5040089;28;1918;-23
2023/04/29 04:46:52;;;;;;;;;;;;;;;29.87;20.31;100879.44;5046358;28;1321;-24
2023/04/29 04:49:31;;;;;;;;;;;;;;;29.83;20.48;100883.56;5068142;28;1556;-22
2023/04/29 04:51:57;;;;;;;;;;;;;;;29.76;20.72;100875.38;5057001;28;1225;-22
2023/04/29 04:54:23;;;;;;;;;;;;;;;28.71;21.94;100868.59;5057357;28;1428;-22
2023/04/29 04:56:52;;;;;;;;;;;;;;;28.51;22.20;100871.88;5041474;28;1478;-23
2023/04/29 04:59:19;;;;;;;;;;;;;;;29.62;21.14;100877.19;5067092;28;1188;-23
2023/04/29 05:01:45;;;;;;;;;;;;;;;30.04;20.80;100874.53;5057364;28;1326;-22
2023/04/29 05:04:10;;;;;;;;;;;;;;;29.55;21.10;100870.84;5058447;28;1914;-23
2023/04/29 05:06:36;;;;;;;;;;;;;;;28.33;22.82;100866.88;5058141;28;1110;-23
2023/04/29 05:09:02;;;;;;;;;;;;;;;28.94;22.23;100879.25;5057221;28;1346;-23
2023/04/29 05:11:27;;;;;;;;;;;;;;;29.61;21.23;100875.53;5040084;28;1248;-23
2023/04/29 05:14:14;;;;;;;;;;;;;;;29.90;21.04;100879.03;5055254;28;1268;-24
2023/04/29 05:16:40;;;;;;;;;;;;;;;29.67;21.37;100882.84;5056647;28;1266;-23
2023/04/29 05:19:08;;;;;;;;;;;;;;;28.77;22.60;100880.50;5056734;28;1322;-26
2023/04/29 05:21:36;;;;;;;;;;;;;;;29.18;22.27;100876.34;5055577;28;1359;-23
2023/04/29 05:24:02;;;;;;;;;;;;;;;29.89;21.32;100884.66;5036385;28;1987;-22
2023/04/29 05:26:28;;;;;;;;;;;;;;;28.54;23.21;100884.22;5037794;28;1250;-22
2023/04/29 05:28:58;;;;;;;;;;;;;;;28.01;23.80;100887.84;5036227;28;1427;-23
2023/04/29 05:31:25;;;;;;;;;;;;;;;29.33;22.03;100889.84;5053942;28;1215;-24
2023/04/29 05:33:50;;;;;;;;;;;;;;;29.68;21.99;100883.69;5053109;28;1261;-22
2023/04/29 05:36:16;;;;;;;;;;;;;;;30.04;21.52;100879.97;5037542;28;1370;-22
2023/04/29 05:38:44;;;;;;;;;;;;;;;28.59;23.10;100877.19;5040370;28;1344;-23
2023/04/29 05:41:09;;;;;;;;;;;;;;;28.81;23.04;100881.81;5036228;28;1422;-24
2023/04/29 05:43:44;;;;;;;;;;;;;;;29.85;21.77;100873.38;5055095;28;1914;-24
2023/04/29 05:46:12;;;;;;;;;;;;;;;29.17;22.30;100869.28;5063341;28;1534;-24
2023/04/29 05:48:38;;;;;;;;;;;;;;;28.16;23.69;100868.94;5055117;28;1073;-23
2023/04/29 05:51:04;;;;;;;;;;;;;;;29.04;22.90;100864.56;5035926;28;1275;-23
2023/04/29 05:53:32;;;;;;;;;;;;;;;29.43;22.27;100868.66;5035964;28;1273;-22
2023/04/29 05:55:57;;;;;;;;;;;;;;;29.86;21.85;100875.06;5035850;28;1336;-23
2023/04/29 05:58:24;;;;;;;;;;;;;;;28.84;22.95;100867.91;5040427;28;1347;-23
2023/04/29 06:00:50;;;;;;;;;;;;;;;28.83;23.11;100869.75;5051918;28;1186;-24
2023/04/29 06:03:21;;;;;;;;;;;;;;;29.63;22.36;100862.59;5054949;28;1914;-22
2023/04/29 06:05:52;;;;;;;;;;;;;;;29.90;21.84;100861.91;5055475;28;1269;-22
2023/04/29 06:08:39;;;;;;;;;;;;;;;28.70;23.26;100858.78;5055426;28;1191;-22
2023/04/29 06:11:14;;;;;;;;;;;;;;;28.20;24.17;100862.94;5043776;28;1269;-23
2023/04/29 06:13:40;;;;;;;;;;;;;;;29.26;22.68;100862.69;5035202;28;1335;-23
2023/04/29 06:16:06;;;;;;;;;;;;;;;29.69;22.34;100867.25;5037217;28;1239;-23
2023/04/29 06:18:33;;;;;;;;;;;;;;;29.86;22.25;100872.34;5035632;28;1399;-25
2023/04/29 06:20:58;;;;;;;;;;;;;;;28.67;23.51;100860.00;5035206;28;1439;-22
2023/04/29 06:23:24;;;;;;;;;;;;;;;28.65;23.56;100863.91;5037682;28;1914;-24
2023/04/29 06:25:50;;;;;;;;;;;;;;;28.50;23.79;100870.22;5037011;28;1330;-23
2023/04/29 06:28:16;;;;;;;;;;;;;;;28.82;23.43;100864.53;5034731;28;1400;-22
2023/04/29 06:30:42;;;;;;;;;;;;;;;28.72;23.58;100870.25;5035064;28;1151;-23
2023/04/29 06:33:08;;;;;;;;;;;;;;;29.08;23.16;100864.00;5035446;28;1306;-25
2023/04/29 06:35:37;;;;;;;;;;;;;;;28.64;23.90;100868.50;5037726;28;1254;-23
2023/04/29 06:38:11;;;;;;;;;;;;;;;28.23;24.21;100876.09;5041730;28;1118;-24
2023/04/29 06:40:59;;;;;;;;;;;;;;;29.01;23.19;100868.50;5055653;28;1125;-22
2023/04/29 06:43:27;;;;;;;;;;;;;;;28.34;24.11;100861.28;5036338;28;1906;-22
2023/04/29 06:45:59;;;;;;;;;;;;;;;28.55;23.81;100866.94;5058629;28;1039;-22
2023/04/29 06:48:33;;;;;;;;;;;;;;;28.84;23.50;100866.00;5059564;28;1364;-22
2023/04/29 06:50:59;;;;;;;;;;;;;;;28.33;23.89;100856.91;5056547;28;852;-24
2023/04/29 06:53:25;;;;;;;;;;;;;;;28.33;24.16;100858.75;5055107;28;1251;-23
2023/04/29 06:55:51;;;;;;;;;;;;;;;28.51;24.13;100860.25;5054644;28;2331;-25
2023/04/29 06:58:18;;;;;;;;;;;;;;;29.23;23.01;100863.06;5056735;28;1062;-25
2023/04/29 07:00:45;;;;;;;;;;;;;;;28.30;24.05;100849.13;5056319;28;1197;-27
2023/04/29 07:03:10;;;;;;;;;;;;;;;28.45;23.91;100843.72;5056322;28;1913;-22
2023/04/29 07:05:39;;;;;;;;;;;;;;;28.87;23.43;100862.09;5055116;28;1122;-24
2023/04/29 07:08:05;;;;;;;;;;;;;;;28.61;23.22;100858.06;5056371;28;1034;-23
2023/04/29 07:10:30;;;;;;;;;;;;;;;28.36;23.87;100853.00;5058629;28;1050;-23
2023/04/29 07:12:56;;;;;;;;;;;;;;;28.37;24.03;100860.06;5036486;28;1123;-24
2023/04/29 07:15:21;;;;;;;;;;;;;;;29.03;23.11;100860.19;5050674;28;1031;-23
2023/04/29 07:17:47;;;;;;;;;;;;;;;27.97;24.66;100861.19;5055980;28;1034;-22
2023/04/29 07:20:13;;;;;;;;;;;;;;;28.24;23.95;100863.41;5038006;28;1131;-23
2023/04/29 07:22:39;;;;;;;;;;;;;;;28.73;23.54;100869.22;5061210;28;1906;-22
2023/04/29 07:25:05;;;;;;;;;;;;;;;28.44;23.73;100860.16;5081965;28;1011;-23
2023/04/29 07:27:31;;;;;;;;;;;;;;;28.26;24.05;100853.22;5057698;28;1608;-23
2023/04/29 07:30:00;;;;;;;;;;;;;;;28.44;23.95;100858.28;5058161;28;1131;-23
2023/04/29 07:32:25;;;;;;;;;;;;;;;28.73;23.38;100856.53;5058199;28;1066;-22
2023/04/29 07:34:51;;;;;;;;;;;;;;;28.35;24.00;100848.59;5061402;28;1344;-23
2023/04/29 07:37:17;;;;;;;;;;;;;;;28.07;24.31;100849.25;5049338;28;1265;-23
2023/04/29 07:39:42;;;;;;;;;;;;;;;29.01;23.08;100854.13;5057945;28;1244;-24
2023/04/29 07:42:09;;;;;;;;;;;;;;;28.18;23.81;100866.84;5057269;28;1367;-23
2023/04/29 07:44:35;;;;;;;;;;;;;;;28.15;23.81;100853.72;5058036;28;1914;-24
2023/04/29 07:47:01;;;;;;;;;;;;;;;28.75;23.27;100856.34;5058832;28;1151;-24
2023/04/29 07:49:27;;;;;;;;;;;;;;;28.29;23.64;100847.47;5057925;28;1197;-23
2023/04/29 07:51:52;;;;;;;;;;;;;;;28.04;24.11;100852.31;5057751;28;1031;-23
2023/04/29 07:54:21;;;;;;;;;;;;;;;28.33;23.92;100851.50;5075981;28;1047;-24
2023/04/29 07:56:47;;;;;;;;;;;;;;;28.68;23.16;100850.84;5076280;28;1042;-24
2023/04/29 07:59:13;;;;;;;;;;;;;;;28.22;23.97;100841.97;5063289;28;1214;-22
2023/04/29 08:01:39;;;;;;;;;;;;;;;28.19;24.31;100842.34;5057899;28;1137;-23
2023/04/29 08:04:06;;;;;;;;;;;;;;;28.98;22.98;100839.09;5057737;28;1902;-23
2023/04/29 08:06:37;;;;;;;;;;;;;;;27.96;24.28;100831.63;5057651;28;1317;-23
2023/04/29 08:09:03;;;;;;;;;;;;;;;28.03;24.12;100837.97;5057651;28;1186;-25
2023/04/29 08:11:28;;;;;;;;;;;;;;;28.89;23.15;100838.38;5078623;28;1014;-23
2023/04/29 08:13:55;;;;;;;;;;;;;;;27.95;24.26;100836.19;5047973;28;1249;-23
2023/04/29 08:16:23;;;;;;;;;;;;;;;28.23;24.08;100830.13;5092931;28;1023;-24
2023/04/29 08:18:48;;;;;;;;;;;;;;;28.84;23.12;100836.22;5060755;28;2324;-24
2023/04/29 08:21:14;;;;;;;;;;;;;;;28.07;23.63;100833.88;5061498;28;1115;-22
2023/04/29 08:23:40;;;;;;;;;;;;;;;28.46;23.53;100828.34;5088803;28;1905;-23
2023/04/29 08:26:05;;;;;;;;;;;;;;;28.68;23.69;100828.34;5065131;28;1206;-22
2023/04/29 08:28:31;;;;;;;;;;;;;;;28.63;23.17;100830.81;5067307;28;1142;-23
2023/04/29 08:30:56;;;;;;;;;;;;;;;28.06;24.25;100815.13;5060999;28;1147;-23
2023/04/29 08:33:22;;;;;;;;;;;;;;;28.14;24.19;100825.00;5078864;28;1147;-22
2023/04/29 08:35:48;;;;;;;;;;;;;;;28.90;23.04;100823.78;5086917;28;1101;-23
2023/04/29 08:38:13;;;;;;;;;;;;;;;27.91;24.11;100807.03;5089744;28;1539;-23
2023/04/29 08:40:42;;;;;;;;;;;;;;;28.02;24.49;100821.94;5079281;28;1131;-23
2023/04/29 08:43:08;;;;;;;;;;;;;;;28.71;23.24;100834.22;5078934;28;1910;-22
2023/04/29 08:45:34;;;;;;;;;;;;;;;27.86;24.47;100821.09;5078823;28;1031;-23
2023/04/29 08:48:00;;;;;;;;;;;;;;;27.90;24.10;100817.00;5081224;28;877;-23
2023/04/29 08:50:25;;;;;;;;;;;;;;;29.09;23.13;100814.19;5060957;28;1090;-22
2023/04/29 08:52:51;;;;;;;;;;;;;;;27.97;24.07;100809.81;5060991;28;1087;-23
2023/04/29 08:55:17;;;;;;;;;;;;;;;28.44;23.81;100816.88;5091690;28;1210;-27
2023/04/29 08:57:43;;;;;;;;;;;;;;;29.14;23.27;100812.78;5061061;28;1213;-22
2023/04/29 09:00:12;;;;;;;;;;;;;;;28.35;23.50;100808.84;5071827;28;1143;-23
2023/04/29 09:02:42;;;;;;;;;;;;;;;28.50;23.58;100809.84;5073683;28;1067;-22
2023/04/29 09:05:08;;;;;;;;;;;;;;;29.31;22.89;100802.50;5061187;28;1517;-23
2023/04/29 09:07:34;;;;;;;;;;;;;;;28.22;24.07;100796.00;5078895;28;1129;-26
2023/04/29 09:10:00;;;;;;;;;;;;;;;28.72;23.82;100795.31;5078026;28;1119;-23
2023/04/29 09:12:26;;;;;;;;;;;;;;;29.43;22.87;100795.50;5071707;28;1031;-22
2023/04/29 09:14:51;;;;;;;;;;;;;;;28.16;23.94;100793.19;5074669;28;1063;-23
2023/04/29 09:17:17;;;;;;;;;;;;;;;28.33;23.87;100788.41;5078235;28;1026;-24
2023/04/29 09:19:43;;;;;;;;;;;;;;;29.22;22.92;100782.84;5078059;28;1101;-24
2023/04/29 09:22:08;;;;;;;;;;;;;;;28.00;24.53;100781.56;5078409;28;1015;-22
2023/04/29 09:24:34;;;;;;;;;;;;;;;28.30;24.10;100781.50;5088411;28;1975;-22
2023/04/29 09:27:00;;;;;;;;;;;;;;;29.10;23.30;100777.13;5078139;28;1058;-22
2023/04/29 09:29:26;;;;;;;;;;;;;;;28.13;24.39;100775.47;5088177;28;1106;-23
2023/04/29 09:31:54;;;;;;;;;;;;;;;28.41;24.14;100771.25;5077323;28;1055;-23
2023/04/29 09:34:34;;;;;;;;;;;;;;;29.11;23.15;100770.69;5081198;28;1089;-23
2023/04/29 09:37:00;;;;;;;;;;;;;;;28.01;24.36;100766.19;5091333;28;896;-24
2023/04/29 09:39:25;;;;;;;;;;;;;;;27.95;24.40;100760.50;5078853;28;946;-23
2023/04/29 09:41:51;;;;;;;;;;;;;;;28.94;23.47;100746.56;5077720;28;1091;-23
2023/04/29 09:44:16;;;;;;;;;;;;;;;28.58;23.48;100748.31;5077709;28;1909;-25
2023/04/29 09:46:42;;;;;;;;;;;;;;;28.42;24.01;100746.72;5077777;28;1019;-25
2023/04/29 09:49:23;;;;;;;;;;;;;;;28.58;23.86;100750.19;5071189;28;1134;-23
2023/04/29 09:51:52;;;;;;;;;;;;;;;28.62;23.91;100745.22;5077274;28;1134;-25
2023/04/29 09:54:21;;;;;;;;;;;;;;;28.33;24.34;100737.03;5077531;28;1177;-24
2023/04/29 09:56:48;;;;;;;;;;;;;;;28.63;24.15;100731.50;5063705;28;1222;-23
2023/04/29 09:59:13;;;;;;;;;;;;;;;28.31;24.16;100730.97;5058374;28;1269;-25
2023/04/29 10:01:38;;;;;;;;;;;;;;;28.40;24.50;100734.38;5057172;28;1147;-23
2023/04/29 10:04:04;;;;;;;;;;;;;;;29.00;23.77;100736.00;5039185;28;1984;-22
2023/04/29 10:06:30;;;;;;;;;;;;;;;28.43;24.10;100728.59;5057264;28;1215;-23
2023/04/29 10:08:56;;;;;;;;;;;;;;;28.16;24.34;100723.69;5056726;28;1277;-23
2023/04/29 10:11:21;;;;;;;;;;;;;;;28.33;24.52;100726.19;5040553;28;1278;-23
2023/04/29 10:13:47;;;;;;;;;;;;;;;28.47;23.90;100719.06;5058383;28;1237;-23
2023/04/29 10:16:24;;;;;;;;;;;;;;;28.14;24.77;100712.25;5038575;28;1155;-23
2023/04/29 10:18:53;;;;;;;;;;;;;;;28.68;24.36;100709.25;5056428;28;1324;-23
2023/04/29 10:21:21;;;;;;;;;;;;;;;28.30;24.34;100694.09;5056841;28;1183;-25
2023/04/29 10:23:46;;;;;;;;;;;;;;;28.06;24.92;100706.97;5056774;28;1918;-24
2023/04/29 10:26:12;;;;;;;;;;;;;;;28.93;23.91;100709.69;5039171;28;1277;-22
2023/04/29 10:28:38;;;;;;;;;;;;;;;28.29;24.29;100714.06;5038399;28;1270;-22
2023/04/29 10:31:04;;;;;;;;;;;;;;;28.24;24.73;100709.25;5038941;28;1274;-23
2023/04/29 10:33:32;;;;;;;;;;;;;;;29.06;23.56;100700.03;5055894;28;1301;-23
2023/04/29 10:35:59;;;;;;;;;;;;;;;28.05;24.57;100697.16;5062544;28;1321;-22
2023/04/29 10:38:25;;;;;;;;;;;;;;;28.38;24.52;100677.78;5046961;28;1296;-23
2023/04/29 10:40:50;;;;;;;;;;;;;;;28.99;23.90;100696.41;5076601;28;1150;-22
2023/04/29 10:43:16;;;;;;;;;;;;;;;28.32;24.10;100690.19;5082081;28;1899;-23
2023/04/29 10:45:41;;;;;;;;;;;;;;;28.40;24.67;100696.50;5066063;28;1136;-23
2023/04/29 10:48:07;;;;;;;;;;;;;;;29.07;24.03;100688.16;5058009;28;1142;-23
2023/04/29 10:50:34;;;;;;;;;;;;;;;28.22;24.49;100695.06;5056400;28;1222;-22
2023/04/29 10:53:03;;;;;;;;;;;;;;;28.14;24.97;100687.91;5056074;28;1235;-23
2023/04/29 10:55:28;;;;;;;;;;;;;;;28.99;23.63;100686.44;5073668;28;1245;-23
2023/04/29 10:57:56;;;;;;;;;;;;;;;28.26;24.42;100685.53;5058132;28;1265;-23
2023/04/29 11:00:25;;;;;;;;;;;;;;;28.40;24.78;100686.53;5061822;28;1329;-24
2023/04/29 11:02:54;;;;;;;;;;;;;;;28.91;23.74;100692.78;5073502;28;1987;-25
2023/04/29 11:05:29;;;;;;;;;;;;;;;28.38;24.37;100687.78;5075786;28;1297;-23
2023/04/29 11:08:11;;;;;;;;;;;;;;;28.34;24.33;100682.72;5076027;28;1242;-25
2023/04/29 11:10:40;;;;;;;;;;;;;;;28.52;23.92;100672.47;5075751;28;1198;-22
2023/04/29 11:13:35;;;;;;;;;;;;;;;28.48;24.63;100667.47;5069886;28;1210;-23
2023/04/29 11:16:04;;;;;;;;;;;;;;;29.01;23.83;100667.28;5059771;28;1608;-23
2023/04/29 11:18:29;;;;;;;;;;;;;;;28.42;24.13;100662.00;5075910;28;1449;-24
2023/04/29 11:21:07;;;;;;;;;;;;;;;28.28;24.84;100663.72;5075910;28;1233;-24
2023/04/29 11:23:33;;;;;;;;;;;;;;;29.14;23.50;100655.69;5069103;28;1901;-23
2023/04/29 11:25:58;;;;;;;;;;;;;;;28.36;24.09;100663.63;5060803;28;1174;-22
2023/04/29 11:28:24;;;;;;;;;;;;;;;28.43;24.70;100656.38;5055707;28;1251;-24
2023/04/29 11:30:50;;;;;;;;;;;;;;;29.15;23.51;100652.78;5040757;28;1294;-25
2023/04/29 11:33:15;;;;;;;;;;;;;;;28.30;24.39;100656.22;5037768;28;1177;-26
2023/04/29 11:35:41;;;;;;;;;;;;;;;28.53;24.47;100650.63;5055184;28;1246;-23
2023/04/29 11:38:06;;;;;;;;;;;;;;;29.10;23.76;100641.69;5074212;28;1206;-23
2023/04/29 11:40:32;;;;;;;;;;;;;;;28.49;24.45;100641.25;5055378;28;1289;-23
2023/04/29 11:42:58;;;;;;;;;;;;;;;28.15;24.85;100637.34;5055470;28;1980;-22
2023/04/29 11:45:23;;;;;;;;;;;;;;;28.80;24.02;100634.63;5057383;28;1143;-23
2023/04/29 11:47:49;;;;;;;;;;;;;;;28.19;24.86;100623.28;5080230;28;1149;-23
2023/04/29 11:50:18;;;;;;;;;;;;;;;28.58;24.57;100631.09;5081711;28;992;-25
2023/04/29 11:52:47;;;;;;;;;;;;;;;28.94;23.88;100623.88;5059407;28;1293;-23
2023/04/29 11:55:13;;;;;;;;;;;;;;;28.09;24.82;100618.16;5059588;28;1203;-27
2023/04/29 11:57:39;;;;;;;;;;;;;;;28.27;24.92;100626.88;5059799;28;1235;-24
2023/04/29 12:00:07;;;;;;;;;;;;;;;28.96;24.11;100627.22;5067869;28;1249;-23
2023/04/29 12:02:33;;;;;;;;;;;;;;;28.31;24.53;100609.22;5059531;28;1117;-23
2023/04/29 12:05:01;;;;;;;;;;;;;;;28.34;24.95;100612.38;5059216;28;1957;-22
2023/04/29 12:07:27;;;;;;;;;;;;;;;29.03;24.03;100603.75;5059584;28;1273;-22
2023/04/29 12:09:53;;;;;;;;;;;;;;;28.21;24.74;100606.84;5041393;28;1290;-25
2023/04/29 12:12:19;;;;;;;;;;;;;;;28.49;24.91;100597.97;5060173;28;1249;-23
2023/04/29 12:14:45;;;;;;;;;;;;;;;29.21;23.72;100600.50;5044076;28;1282;-23
2023/04/29 12:17:10;;;;;;;;;;;;;;;28.22;24.75;100600.41;5044114;28;1275;-23
2023/04/29 12:19:37;;;;;;;;;;;;;;;28.32;24.85;100597.38;5059073;28;1255;-24
2023/04/29 12:22:03;;;;;;;;;;;;;;;29.03;24.16;100594.81;5058858;28;1229;-22
2023/04/29 12:24:28;;;;;;;;;;;;;;;28.39;24.43;100587.47;5060817;28;1906;-24
2023/04/29 12:26:54;;;;;;;;;;;;;;;28.23;25.17;100594.78;5084703;28;1045;-23
2023/04/29 12:29:21;;;;;;;;;;;;;;;29.02;24.06;100591.25;5079121;28;1038;-23
2023/04/29 12:31:46;;;;;;;;;;;;;;;28.18;24.95;100589.13;5078647;28;1162;-22
2023/04/29 12:34:12;;;;;;;;;;;;;;;28.50;24.83;100596.06;5079163;28;1137;-22
2023/04/29 12:36:40;;;;;;;;;;;;;;;29.02;24.14;100593.13;5083165;28;1012;-25
2023/04/29 12:39:08;;;;;;;;;;;;;;;28.27;24.80;100591.69;5079167;28;1153;-24
2023/04/29 12:41:37;;;;;;;;;;;;;;;28.42;25.05;100591.66;5078542;28;1135;-24
2023/04/29 12:44:03;;;;;;;;;;;;;;;28.78;24.20;100582.53;5079123;28;1905;-23
2023/04/29 12:46:33;;;;;;;;;;;;;;;28.29;24.70;100571.56;5060281;28;1054;-23
2023/04/29 12:49:00;;;;;;;;;;;;;;;28.30;24.60;100577.78;5082758;28;1129;-22
2023/04/29 12:51:26;;;;;;;;;;;;;;;28.76;24.46;100576.47;5064776;28;1199;-23